Time;durP1;ratioP1;P1;durP2;ratioP2;P2;SDS_P1;SDS_P2;PMS_P1;PMS_P2;Temp;Humidity;BMP_temperature;BMP_pressure;BME280_temperature;BME280_humidity;BME280_pressure;Samples;Min_cycle;Max_cycle;Signal;HPM_P1;HPM_P2
2021/04/02 00:00:47;;;;;;;6.30;5.63;;;;;;;7.86;93.17;95614.94;5085838;28;20221;-71
2021/04/02 00:03:19;;;;;;;11.27;7.13;;;;;;;7.83;92.92;95615.28;5088279;28;20225;-71
2021/04/02 00:05:46;;;;;;;10.10;7.40;;;;;;;7.92;92.86;95614.28;5074948;28;20676;-70
2021/04/02 00:08:13;;;;;;;8.03;7.27;;;;;;;8.03;91.11;95611.28;5080714;28;20246;-70
2021/04/02 00:10:46;;;;;;;9.63;8.00;;;;;;;8.10;90.41;95614.88;5077821;28;20267;-70
2021/04/02 00:13:14;;;;;;;8.17;5.63;;;;;;;8.07;88.89;95614.41;5085018;28;20232;-71
2021/04/02 00:15:41;;;;;;;7.73;6.93;;;;;;;7.98;89.02;95610.97;5070525;28;20255;-70
2021/04/02 00:18:09;;;;;;;10.63;9.53;;;;;;;7.96;89.76;95616.41;5067567;28;20222;-70
2021/04/02 00:20:37;;;;;;;14.27;7.87;;;;;;;7.97;90.93;95612.78;5073865;28;20674;-69
2021/04/02 00:23:06;;;;;;;8.17;7.43;;;;;;;8.03;90.48;95616.53;5085718;28;20224;-69
2021/04/02 00:25:33;;;;;;;13.50;8.93;;;;;;;8.00;90.64;95611.63;5084052;28;20247;-70
2021/04/02 00:27:59;;;;;;;14.13;9.37;;;;;;;8.03;90.49;95611.28;5078355;28;20300;-71
2021/04/02 00:30:31;;;;;;;11.70;7.47;;;;;;;7.95;90.73;95606.03;5082288;28;20251;-70
2021/04/02 00:32:58;;;;;;;15.23;9.27;;;;;;;7.95;90.60;95609.53;5076656;28;21014;-70
2021/04/02 00:35:24;;;;;;;14.43;8.20;;;;;;;7.89;90.80;95604.13;5082933;28;20248;-70
2021/04/02 00:37:52;;;;;;;14.80;8.03;;;;;;;7.89;89.93;95609.38;5087649;28;20234;-71
2021/04/02 00:40:22;;;;;;;8.07;7.37;;;;;;;7.92;90.06;95609.03;5082038;28;20234;-71
2021/04/02 00:42:49;;;;;;;8.30;7.60;;;;;;;7.87;90.35;95606.09;5086065;28;20298;-70
2021/04/02 00:45:18;;;;;;;9.90;8.00;;;;;;;7.82;90.10;95608.41;5074321;28;20222;-71
2021/04/02 00:47:46;;;;;;;13.67;9.43;;;;;;;7.82;90.18;95608.41;5084774;28;20248;-70
2021/04/02 00:50:16;;;;;;;13.43;7.97;;;;;;;7.84;90.26;95607.22;5077763;28;20226;-70
2021/04/02 00:52:43;;;;;;;10.30;8.43;;;;;;;7.90;90.67;95611.00;5071844;28;20217;-70
2021/04/02 00:55:12;;;;;;;8.73;8.03;;;;;;;7.90;90.05;95611.00;5077179;28;20251;-71
2021/04/02 00:57:39;;;;;;;10.97;8.03;;;;;;;7.89;89.80;95604.13;5072175;28;20315;-70
2021/04/02 01:00:09;;;;;;;13.90;9.10;;;;;;;7.86;89.51;95605.28;5082877;28;20243;-70
2021/04/02 01:02:36;;;;;;;12.07;9.00;;;;;;;7.84;89.15;95614.28;5078724;28;20226;-70
2021/04/02 01:05:07;;;;;;;13.77;8.80;;;;;;;7.83;89.48;95621.34;5067647;28;20947;-70
2021/04/02 01:07:35;;;;;;;10.40;8.87;;;;;;;7.81;89.25;95610.19;5077972;28;20818;-71
2021/04/02 01:10:04;;;;;;;12.97;8.93;;;;;;;7.78;89.60;95607.09;5077869;28;20244;-70
2021/04/02 01:12:33;;;;;;;11.67;9.97;;;;;;;7.75;89.41;95612.66;5077331;28;20703;-70
2021/04/02 01:15:01;;;;;;;12.67;9.50;;;;;;;7.75;89.68;95607.41;5084645;28;20221;-71
2021/04/02 01:17:29;;;;;;;10.87;9.63;;;;;;;7.65;90.10;95610.22;5070223;28;20230;-71
2021/04/02 01:19:57;;;;;;;13.57;9.80;;;;;;;7.61;89.85;95612.38;5081104;28;20303;-70
2021/04/02 01:22:29;;;;;;;15.87;9.90;;;;;;;7.65;88.66;95611.03;5078152;28;20298;-71
2021/04/02 01:25:11;;;;;;;15.37;11.03;;;;;;;7.66;87.85;95620.56;5065211;28;20228;-70
2021/04/02 01:27:56;;;;;;;15.17;10.03;;;;;;;7.59;87.81;95619.63;5078711;28;20271;-70
2021/04/02 01:30:24;;;;;;;11.43;9.00;;;;;;;7.61;88.02;95630.75;5084408;28;20263;-71
2021/04/02 01:32:53;;;;;;;13.93;10.27;;;;;;;7.61;87.37;95622.88;5081802;28;20232;-71
2021/04/02 01:35:26;;;;;;;11.27;9.80;;;;;;;7.65;86.69;95621.56;5080179;28;20303;-70
2021/04/02 01:37:57;;;;;;;12.23;10.93;;;;;;;7.62;86.41;95629.78;5084399;28;20228;-71
2021/04/02 01:40:26;;;;;;;14.83;11.63;;;;;;;7.58;86.47;95623.19;5080417;28;20224;-71
2021/04/02 01:42:55;;;;;;;11.63;9.87;;;;;;;7.52;87.32;95625.69;5076749;28;22695;-71
2021/04/02 01:45:25;;;;;;;17.63;13.20;;;;;;;7.47;87.20;95622.72;5084256;28;20233;-70
2021/04/02 01:47:55;;;;;;;18.70;11.53;;;;;;;7.41;87.25;95619.78;5084304;28;20244;-70
2021/04/02 01:50:23;;;;;;;11.07;8.80;;;;;;;7.36;87.69;95623.88;5095844;28;20229;-69
2021/04/02 01:52:51;;;;;;;16.40;10.93;;;;;;;7.29;88.46;95622.91;5096520;28;20762;-70
2021/04/02 01:55:19;;;;;;;16.73;11.90;;;;;;;7.23;88.75;95628.81;5064513;28;20221;-71
2021/04/02 01:57:50;;;;;;;10.40;9.27;;;;;;;7.15;89.58;95623.56;5083107;28;20305;-71
2021/04/02 02:00:28;;;;;;;12.93;11.57;;;;;;;7.06;89.59;95628.81;5083867;28;20310;-71
2021/04/02 02:02:56;;;;;;;12.87;11.53;;;;;;;7.03;89.95;95634.34;5082267;28;20226;-71
2021/04/02 02:05:28;;;;;;;17.00;12.70;;;;;;;7.00;89.78;95631.25;5076832;28;20234;-70
2021/04/02 02:08:01;;;;;;;17.60;13.50;;;;;;;6.94;90.16;95622.22;5078469;28;20234;-71
2021/04/02 02:10:31;;;;;;;14.73;13.13;;;;;;;6.90;89.89;95626.16;5080520;28;20227;-70
2021/04/02 02:13:00;;;;;;;17.20;12.20;;;;;;;6.88;90.15;95641.25;5083000;28;20262;-70
2021/04/02 02:15:53;;;;;;;12.83;10.60;;;;;;;6.88;89.93;95638.63;5077272;28;20297;-70
2021/04/02 02:18:25;;;;;;;14.43;11.97;;;;;;;6.82;90.62;95637.44;5078771;28;20229;-70
2021/04/02 02:20:54;;;;;;;12.73;11.43;;;;;;;6.84;90.82;95637.28;5074263;28;20322;-70
2021/04/02 02:23:23;;;;;;;13.13;11.87;;;;;;;6.84;91.17;95642.53;5082184;28;20298;-70
2021/04/02 02:25:50;;;;;;;16.20;12.17;;;;;;;6.82;91.16;95637.44;5082360;28;20280;-71
2021/04/02 02:28:19;;;;;;;13.13;11.77;;;;;;;6.83;91.11;95643.50;5081233;28;20238;-71
2021/04/02 02:30:48;;;;;;;15.00;11.67;;;;;;;6.87;90.78;95639.59;5065008;28;20229;-70
2021/04/02 02:33:26;;;;;;;15.07;13.20;;;;;;;6.87;90.51;95638.78;5080167;28;20717;-70
2021/04/02 02:36:01;;;;;;;17.90;13.37;;;;;;;6.82;90.60;95634.00;5084173;28;20299;-71
2021/04/02 02:38:31;;;;;;;15.27;12.83;;;;;;;6.68;90.93;95629.41;5083907;28;20931;-70
2021/04/02 02:41:02;;;;;;;15.63;13.30;;;;;;;6.53;91.25;95637.88;5079491;28;20235;-69
2021/04/02 02:43:32;;;;;;;12.40;10.17;;;;;;;6.44;91.47;95638.81;5080283;28;20306;-71
2021/04/02 02:46:00;;;;;;;17.53;13.70;;;;;;;6.31;91.57;95628.00;5074810;28;20224;-70
2021/04/02 02:48:28;;;;;;;15.13;12.97;;;;;;;6.24;91.54;95637.44;5064679;28;20229;-71
2021/04/02 02:50:58;;;;;;;13.13;11.10;;;;;;;6.16;91.46;95629.56;5075031;28;20234;-70
2021/04/02 02:53:30;;;;;;;16.33;11.07;;;;;;;6.13;91.55;95627.25;5084521;28;20666;-69
2021/04/02 02:56:02;;;;;;;16.20;12.60;;;;;;;6.19;92.08;95626.59;5076642;28;20236;-71
2021/04/02 02:58:35;;;;;;;20.17;15.50;;;;;;;6.35;92.29;95625.84;5083106;28;20221;-70
2021/04/02 03:01:04;;;;;;;19.97;17.90;;;;;;;6.40;91.86;95627.03;5062670;28;20313;-71
2021/04/02 03:03:33;;;;;;;27.63;15.80;;;;;;;6.49;91.78;95626.06;5065325;28;20222;-71
2021/04/02 03:06:08;;;;;;;21.43;16.07;;;;;;;6.52;91.61;95630.19;5073616;28;20230;-71
2021/04/02 03:08:45;;;;;;;24.33;16.63;;;;;;;6.50;91.56;95632.16;5074153;28;20691;-70
2021/04/02 03:11:17;;;;;;;22.33;17.23;;;;;;;6.41;91.16;95618.19;5071600;28;20217;-70
2021/04/02 03:13:49;;;;;;;20.23;13.93;;;;;;;6.36;92.13;95625.69;5086307;28;20227;-69
2021/04/02 03:16:20;;;;;;;20.17;16.57;;;;;;;6.24;91.62;95632.22;5063134;28;20235;-70
2021/04/02 03:18:52;;;;;;;19.10;16.20;;;;;;;6.18;91.86;95622.34;5071661;28;20259;-70
2021/04/02 03:21:21;;;;;;;17.03;15.03;;;;;;;6.15;92.23;95630.53;5079494;28;20226;-70
2021/04/02 03:23:54;;;;;;;19.67;14.60;;;;;;;6.13;92.82;95624.63;5080664;28;20252;-70
2021/04/02 03:26:23;;;;;;;21.63;15.77;;;;;;;6.11;93.27;95626.56;5069407;28;20228;-70
2021/04/02 03:28:51;;;;;;;16.37;14.77;;;;;;;6.07;93.80;95625.25;5080559;28;20219;-70
2021/04/02 03:31:20;;;;;;;21.43;16.30;;;;;;;5.97;94.72;95623.56;5080208;28;20317;-71
2021/04/02 03:33:52;;;;;;;23.07;18.57;;;;;;;6.02;94.86;95630.13;5076759;28;20602;-71
2021/04/02 03:36:27;;;;;;;27.60;17.30;;;;;;;5.98;94.48;95629.63;5062502;28;20302;-70
2021/04/02 03:39:00;;;;;;;20.63;17.17;;;;;;;5.93;94.47;95627.47;5073420;28;20240;-71
2021/04/02 03:41:34;;;;;;;21.17;18.33;;;;;;;5.92;94.73;95631.06;5076092;28;20225;-71
2021/04/02 03:44:09;;;;;;;19.17;17.03;;;;;;;5.90;94.69;95638.25;5082544;28;20791;-69
2021/04/02 03:46:40;;;;;;;23.27;17.47;;;;;;;5.88;94.72;95637.56;5067341;28;20292;-70
2021/04/02 03:49:13;;;;;;;24.87;18.07;;;;;;;5.87;95.02;95642.97;5067513;28;20220;-71
2021/04/02 03:51:45;;;;;;;19.93;17.03;;;;;;;5.86;95.40;95644.75;5074429;28;20222;-70
2021/04/02 03:54:15;;;;;;;23.23;18.63;;;;;;;5.83;95.45;95645.06;5077235;28;20229;-69
2021/04/02 03:56:46;;;;;;;25.17;19.60;;;;;;;5.67;95.20;95644.97;5076101;28;20668;-70
2021/04/02 03:59:21;;;;;;;25.70;19.87;;;;;;;5.66;94.91;95648.53;5081704;28;20949;-71
2021/04/02 04:01:54;;;;;;;19.80;17.80;;;;;;;5.67;95.04;95644.97;5075736;28;20732;-70
2021/04/02 04:04:26;;;;;;;23.73;20.53;;;;;;;5.65;94.95;95646.91;5079406;28;20291;-71
2021/04/02 04:06:57;;;;;;;19.60;17.50;;;;;;;5.61;95.25;95645.59;5076925;28;20212;-70
2021/04/02 04:09:27;;;;;;;26.33;18.37;;;;;;;5.61;95.10;95646.41;5075324;28;20431;-70
2021/04/02 04:12:01;;;;;;;21.50;18.03;;;;;;;5.58;95.05;95656.38;5078786;28;20690;-70
2021/04/02 04:14:38;;;;;;;27.33;20.93;;;;;;;5.56;95.27;95653.06;5082237;28;20222;-70
2021/04/02 04:17:08;;;;;;;22.30;18.20;;;;;;;5.58;95.32;95661.59;5078958;28;20221;-70
2021/04/02 04:19:40;;;;;;;26.17;19.37;;;;;;;5.50;95.32;95658.94;5061731;28;20648;-70
2021/04/02 04:22:12;;;;;;;19.80;17.10;;;;;;;5.47;95.35;95651.38;5067798;28;20303;-69
2021/04/02 04:24:45;;;;;;;22.00;19.60;;;;;;;5.43;95.42;95651.69;5084087;28;20900;-71
2021/04/02 04:27:13;;;;;;;26.60;19.40;;;;;;;5.40;95.52;95654.59;5067171;28;20222;-70
2021/04/02 04:29:44;;;;;;;28.33;20.47;;;;;;;5.46;95.56;95657.56;5067413;28;20230;-71
2021/04/02 04:32:16;;;;;;;25.70;19.73;;;;;;;5.50;95.48;95661.53;5080989;28;20233;-71
2021/04/02 04:34:47;;;;;;;21.83;17.40;;;;;;;5.51;95.50;95657.94;5076792;28;20512;-70
2021/04/02 04:37:17;;;;;;;24.17;19.10;;;;;;;5.51;95.46;95664.00;5067704;28;20222;-68
2021/04/02 04:39:46;;;;;;;26.03;19.70;;;;;;;5.47;95.33;95665.28;5068044;28;20221;-68
2021/04/02 04:42:15;;;;;;;28.33;23.07;;;;;;;5.46;95.33;95657.56;5080507;28;20893;-68
2021/04/02 04:44:45;;;;;;;26.33;19.90;;;;;;;5.42;95.65;95657.88;5086589;28;20213;-67
2021/04/02 04:47:12;;;;;;;27.60;19.03;;;;;;;5.36;95.54;95658.47;5086086;28;20260;-68
2021/04/02 04:49:39;;;;;;;25.17;18.67;;;;;;;5.36;95.99;95657.66;5083155;28;20249;-68
2021/04/02 04:52:09;;;;;;;24.47;19.90;;;;;;;5.32;96.07;95651.91;5087289;28;20225;-67
2021/04/02 04:54:37;;;;;;;28.07;21.37;;;;;;;5.27;95.79;95651.53;5084404;28;20291;-67
2021/04/02 04:57:06;;;;;;;24.43;19.33;;;;;;;5.21;95.85;95654.78;5083320;28;20293;-67
2021/04/02 04:59:33;;;;;;;20.37;16.20;;;;;;;5.24;96.06;95653.66;5074802;28;20225;-68
2021/04/02 05:02:02;;;;;;;25.27;20.70;;;;;;;5.32;96.20;95662.38;5080870;28;20768;-68
2021/04/02 05:04:30;;;;;;;26.93;20.43;;;;;;;5.40;95.83;95653.78;5075943;28;20301;-68
2021/04/02 05:07:00;;;;;;;26.63;20.30;;;;;;;5.41;95.87;95661.47;5075521;28;20294;-68
2021/04/02 05:09:29;;;;;;;28.70;21.87;;;;;;;5.50;95.91;95659.75;5078926;28;20274;-68
2021/04/02 05:12:00;;;;;;;26.07;20.83;;;;;;;5.45;95.84;95666.41;5078959;28;20312;-68
2021/04/02 05:14:29;;;;;;;22.87;19.90;;;;;;;5.45;95.47;95658.56;5077777;28;20303;-68
2021/04/02 05:16:57;;;;;;;24.20;20.67;;;;;;;5.46;95.57;95663.63;5079738;28;20660;-67
2021/04/02 05:19:25;;;;;;;28.83;22.80;;;;;;;5.33;95.87;95658.78;5085041;28;20286;-68
2021/04/02 05:21:51;;;;;;;32.73;22.77;;;;;;;5.33;96.11;95669.25;5083335;28;20263;-68
2021/04/02 05:24:20;;;;;;;28.47;19.87;;;;;;;5.36;96.26;95674.19;5083178;28;20226;-67
2021/04/02 05:26:48;;;;;;;29.33;21.13;;;;;;;5.41;96.67;95676.38;5076154;28;20221;-68
2021/04/02 05:29:15;;;;;;;27.73;20.00;;;;;;;5.45;96.67;95676.88;5081704;28;20259;-66
2021/04/02 05:31:44;;;;;;;27.13;20.70;;;;;;;5.53;96.42;95669.09;5070558;28;20724;-67
2021/04/02 05:34:13;;;;;;;23.97;18.27;;;;;;;5.58;96.24;95672.06;5076055;28;20222;-68
2021/04/02 05:36:40;;;;;;;23.43;20.77;;;;;;;5.62;96.22;95674.22;5077249;28;20249;-68
2021/04/02 05:39:08;;;;;;;21.37;17.93;;;;;;;5.66;96.17;95669.50;5076308;28;20218;-68
2021/04/02 05:41:42;;;;;;;20.07;16.80;;;;;;;5.70;95.97;95676.09;5073225;28;20950;-68
2021/04/02 05:44:12;;;;;;;22.07;19.13;;;;;;;5.72;95.98;95684.59;5079175;28;20690;-68
2021/04/02 05:46:40;;;;;;;25.10;18.97;;;;;;;5.78;96.11;95683.16;5072430;28;20275;-68
2021/04/02 05:49:08;;;;;;;19.50;15.77;;;;;;;5.83;95.75;95692.19;5075165;28;20237;-69
2021/04/02 05:51:35;;;;;;;19.23;15.07;;;;;;;5.88;95.61;95689.94;5093212;28;20229;-67
2021/04/02 05:54:02;;;;;;;19.60;16.53;;;;;;;5.95;95.69;95680.53;5084473;28;20786;-67
2021/04/02 05:56:29;;;;;;;24.87;19.40;;;;;;;5.97;95.78;95689.06;5079302;28;20731;-68
2021/04/02 05:58:56;;;;;;;24.33;18.63;;;;;;;6.08;95.58;95695.00;5082137;28;20460;-68
2021/04/02 06:01:25;;;;;;;18.43;16.47;;;;;;;6.14;95.66;95697.00;5082879;28;20233;-68
2021/04/02 06:03:52;;;;;;;17.80;15.70;;;;;;;6.22;95.32;95694.44;5081779;28;20585;-67
2021/04/02 06:06:20;;;;;;;20.47;17.43;;;;;;;6.31;95.27;95690.88;5075506;28;20227;-68
2021/04/02 06:08:47;;;;;;;22.27;18.90;;;;;;;6.44;94.95;95691.25;5076278;28;20241;-68
2021/04/02 06:11:15;;;;;;;26.50;19.00;;;;;;;6.55;94.34;95693.59;5075679;28;20246;-68
2021/04/02 06:13:42;;;;;;;22.07;18.63;;;;;;;6.66;94.29;95699.53;5070306;28;20300;-68
2021/04/02 06:16:09;;;;;;;20.23;15.30;;;;;;;6.74;93.89;95696.94;5077659;28;20662;-68
2021/04/02 06:18:40;;;;;;;20.27;17.63;;;;;;;6.85;93.55;95699.25;5065617;28;20287;-68
2021/04/02 06:21:08;;;;;;;18.70;14.47;;;;;;;6.96;93.47;95704.22;5065721;28;20220;-69
2021/04/02 06:23:36;;;;;;;19.93;15.57;;;;;;;7.09;92.86;95701.94;5080988;28;20275;-67
2021/04/02 06:26:05;;;;;;;16.27;14.53;;;;;;;7.22;92.42;95700.63;5074646;28;20864;-68
2021/04/02 06:28:33;;;;;;;21.03;17.17;;;;;;;7.36;91.83;95697.38;5080667;28;20218;-68
2021/04/02 06:31:02;;;;;;;23.20;19.63;;;;;;;7.46;92.20;95697.22;5090984;28;20289;-68
2021/04/02 06:33:31;;;;;;;22.07;17.93;;;;;;;7.57;91.76;95700.34;5077654;28;20704;-68
2021/04/02 06:36:00;;;;;;;16.53;13.97;;;;;;;7.70;91.38;95695.44;5076236;28;20281;-68
2021/04/02 06:38:32;;;;;;;18.20;14.00;;;;;;;7.86;91.08;95701.63;5065630;28;20579;-68
2021/04/02 06:41:05;;;;;;;17.07;15.30;;;;;;;8.01;90.50;95697.34;5061399;28;20741;-67
2021/04/02 06:43:38;;;;;;;22.00;17.70;;;;;;;8.13;89.68;95690.75;5062604;28;20556;-68
2021/04/02 06:46:06;;;;;;;20.17;14.63;;;;;;;8.25;89.41;95692.06;5065418;28;20595;-68
2021/04/02 06:48:33;;;;;;;19.43;15.77;;;;;;;8.38;88.99;95702.06;5064823;28;20272;-68
2021/04/02 06:51:01;;;;;;;18.57;15.40;;;;;;;8.49;88.46;95700.88;5070815;28;20229;-68
2021/04/02 06:53:29;;;;;;;15.07;13.47;;;;;;;8.58;88.00;95694.59;5083417;28;20217;-68
2021/04/02 06:55:58;;;;;;;23.87;14.23;;;;;;;8.70;87.71;95698.50;5079611;28;20228;-68
2021/04/02 06:58:29;;;;;;;15.00;13.53;;;;;;;8.83;87.42;95700.56;5075119;28;20641;-68
2021/04/02 07:01:03;;;;;;;18.20;14.13;;;;;;;8.94;86.58;95699.38;5080109;28;20256;-68
2021/04/02 07:03:31;;;;;;;16.90;15.17;;;;;;;9.05;85.85;95701.59;5075500;28;20768;-68
2021/04/02 07:06:00;;;;;;;14.73;13.23;;;;;;;9.13;85.61;95698.94;5070721;28;20210;-68
2021/04/02 07:08:28;;;;;;;15.13;13.33;;;;;;;9.26;85.73;95707.09;5077080;28;20318;-68
2021/04/02 07:10:57;;;;;;;15.47;14.03;;;;;;;9.44;85.41;95696.28;5080826;28;20225;-68
2021/04/02 07:13:25;;;;;;;16.43;13.67;;;;;;;9.58;85.12;95697.31;5082314;28;20278;-67
2021/04/02 07:15:53;;;;;;;16.67;14.97;;;;;;;9.56;84.29;95699.31;5070167;28;20217;-68
2021/04/02 07:18:20;;;;;;;13.67;12.30;;;;;;;9.55;83.38;95697.66;5081153;28;20780;-68
2021/04/02 07:20:48;;;;;;;18.93;14.17;;;;;;;9.66;84.11;95694.59;5080336;28;20234;-68
2021/04/02 07:23:16;;;;;;;16.40;14.67;;;;;;;9.78;83.89;95693.19;5077482;28;20354;-68
2021/04/02 07:25:44;;;;;;;18.10;14.30;;;;;;;9.84;83.08;95700.38;5069978;28;20283;-68
2021/04/02 07:28:11;;;;;;;18.30;14.73;;;;;;;9.89;82.52;95695.41;5075930;28;20222;-67
2021/04/02 07:30:38;;;;;;;16.63;14.93;;;;;;;9.89;81.68;95695.41;5071501;28;20255;-68
2021/04/02 07:33:08;;;;;;;14.80;13.27;;;;;;;10.04;81.93;95697.25;5075666;28;20398;-68
2021/04/02 07:35:37;;;;;;;15.37;13.83;;;;;;;10.32;82.36;95690.38;5080366;28;20298;-68
2021/04/02 07:38:06;;;;;;;15.83;13.07;;;;;;;10.61;81.27;95694.88;5071405;28;20284;-68
2021/04/02 07:40:34;;;;;;;13.73;12.47;;;;;;;10.89;80.98;95694.19;5077309;28;20729;-68
2021/04/02 07:43:06;;;;;;;20.37;15.57;;;;;;;11.07;80.04;95695.44;5064108;28;20265;-68
2021/04/02 07:45:34;;;;;;;19.53;16.47;;;;;;;11.06;78.43;95688.53;5064049;28;20642;-68
2021/04/02 07:48:13;;;;;;;20.43;17.27;;;;;;;11.05;77.24;95691.31;5072853;28;20441;-68
2021/04/02 07:50:43;;;;;;;20.80;18.57;;;;;;;10.91;77.72;95695.66;5072183;28;20716;-69
2021/04/02 07:53:15;;;;;;;21.40;17.10;;;;;;;10.87;77.08;95704.91;5076625;28;20220;-67
2021/04/02 07:55:53;;;;;;;27.03;18.87;;;;;;;10.99;77.59;95697.38;5079686;28;20227;-68
2021/04/02 07:58:23;;;;;;;21.17;17.73;;;;;;;11.14;76.15;95697.31;5082114;28;20303;-68
2021/04/02 08:00:53;;;;;;;21.50;18.93;;;;;;;11.09;76.02;95697.88;5073305;28;20229;-68
2021/04/02 08:03:22;;;;;;;22.67;19.23;;;;;;;11.09;76.49;95698.69;5069409;28;20217;-67
2021/04/02 08:05:59;;;;;;;20.20;18.10;;;;;;;11.21;76.37;95695.56;5078801;28;20251;-68
2021/04/02 08:08:38;;;;;;;22.23;19.57;;;;;;;11.26;74.96;95699.31;5078980;28;20235;-68
2021/04/02 08:11:06;;;;;;;24.97;20.20;;;;;;;11.15;76.17;95701.59;5083265;28;20247;-68
2021/04/02 08:14:00;;;;;;;20.20;18.20;;;;;;;10.98;76.72;95707.13;5085625;28;20224;-68
2021/04/02 08:16:48;;;;;;;21.57;18.43;;;;;;;11.00;76.48;95713.03;5082342;28;20502;-68
2021/04/02 08:19:20;;;;;;;23.60;19.97;;;;;;;10.96;76.33;95709.09;5082238;28;20794;-68
2021/04/02 08:21:50;;;;;;;26.53;20.87;;;;;;;10.93;76.77;95714.75;5081799;28;20644;-68
2021/04/02 08:24:20;;;;;;;29.57;22.83;;;;;;;10.96;75.87;95706.47;5078568;28;20241;-68
2021/04/02 08:26:48;;;;;;;31.03;23.50;;;;;;;11.20;77.32;95699.22;5086516;28;20362;-68
2021/04/02 08:29:18;;;;;;;26.73;22.10;;;;;;;11.46;75.79;95712.72;5076532;28;20240;-67
2021/04/02 08:31:49;;;;;;;28.63;22.10;;;;;;;11.45;74.78;95713.72;5085213;28;20224;-68
2021/04/02 08:34:19;;;;;;;31.17;24.07;;;;;;;11.36;75.01;95725.41;5076369;28;20220;-68
2021/04/02 08:36:48;;;;;;;27.97;23.47;;;;;;;11.07;75.08;95716.56;5079926;28;20335;-68
2021/04/02 08:39:17;;;;;;;34.23;23.83;;;;;;;10.82;76.56;95717.88;5083714;28;20790;-68
2021/04/02 08:41:44;;;;;;;27.07;22.17;;;;;;;10.59;78.04;95722.41;5081030;28;20244;-68
2021/04/02 08:44:11;;;;;;;27.13;21.10;;;;;;;10.52;78.10;95725.00;5082487;28;20232;-68
2021/04/02 08:46:42;;;;;;;28.43;21.87;;;;;;;10.40;79.04;95724.59;5078082;28;20226;-68
2021/04/02 08:49:10;;;;;;;32.57;24.97;;;;;;;10.38;78.96;95721.31;5079261;28;20657;-68
2021/04/02 08:51:38;;;;;;;29.43;24.33;;;;;;;10.37;79.08;95727.59;5073955;28;20324;-67
2021/04/02 08:54:11;;;;;;;33.70;26.47;;;;;;;10.40;78.76;95719.31;5084026;28;20736;-68
2021/04/02 08:56:38;;;;;;;29.17;23.73;;;;;;;10.35;78.88;95724.34;5071701;28;20228;-68
2021/04/02 08:59:08;;;;;;;31.03;25.93;;;;;;;10.30;79.57;95721.41;5086339;28;20287;-69
2021/04/02 09:01:41;;;;;;;33.87;25.53;;;;;;;10.27;78.89;95723.59;5087030;28;20230;-68
2021/04/02 09:04:09;;;;;;;35.87;25.77;;;;;;;10.26;79.88;95712.22;5077037;28;20307;-67
2021/04/02 09:06:37;;;;;;;31.43;25.80;;;;;;;10.29;79.79;95717.13;5073063;28;20331;-68
2021/04/02 09:09:13;;;;;;;30.47;25.63;;;;;;;10.20;80.22;95718.19;5079018;28;20227;-68
2021/04/02 09:11:39;;;;;;;31.53;25.43;;;;;;;10.20;79.56;95715.53;5079620;28;20221;-68
2021/04/02 09:14:09;;;;;;;30.40;22.43;;;;;;;10.28;79.86;95720.78;5076891;28;20291;-67
2021/04/02 09:16:37;;;;;;;28.33;25.13;;;;;;;10.27;80.08;95719.16;5071317;28;20281;-68
2021/04/02 09:19:06;;;;;;;32.10;24.27;;;;;;;10.35;79.88;95710.34;5071475;28;20232;-67
2021/04/02 09:21:51;;;;;;;31.07;26.33;;;;;;;10.38;79.45;95707.31;5080267;28;20635;-68
2021/04/02 09:24:18;;;;;;;32.73;24.77;;;;;;;10.39;79.33;95707.13;5079687;28;20221;-68
2021/04/02 09:26:45;;;;;;;28.73;24.23;;;;;;;10.40;79.21;95706.13;5070250;28;20268;-67
2021/04/02 09:29:13;;;;;;;27.47;22.27;;;;;;;10.42;79.25;95705.94;5084752;28;20225;-68
2021/04/02 09:31:42;;;;;;;28.33;24.27;;;;;;;10.46;79.11;95708.06;5076827;28;20236;-68
2021/04/02 09:34:11;;;;;;;23.27;19.77;;;;;;;10.46;78.71;95702.78;5080227;28;21133;-68
2021/04/02 09:36:42;;;;;;;23.27;20.47;;;;;;;10.58;79.45;95700.50;5070241;28;20224;-68
2021/04/02 09:39:11;;;;;;;24.47;19.97;;;;;;;10.66;78.58;95689.84;5078500;28;20772;-68
2021/04/02 09:41:42;;;;;;;25.63;23.00;;;;;;;10.62;78.05;95693.88;5079190;28;20224;-68
2021/04/02 09:44:11;;;;;;;24.30;21.60;;;;;;;10.76;78.02;95692.19;5077456;28;20301;-68
2021/04/02 09:46:40;;;;;;;28.57;22.50;;;;;;;10.73;77.66;95697.84;5078039;28;20264;-68
2021/04/02 09:49:10;;;;;;;25.37;22.27;;;;;;;10.58;78.52;95699.69;5076271;28;20232;-68
2021/04/02 09:51:39;;;;;;;22.73;20.33;;;;;;;10.69;78.42;95696.56;5078400;28;20310;-68
2021/04/02 09:54:10;;;;;;;31.03;23.97;;;;;;;10.83;78.22;95687.81;5083981;28;20271;-68
2021/04/02 09:56:38;;;;;;;32.97;22.90;;;;;;;11.06;78.20;95688.53;5078410;28;20279;-68
2021/04/02 09:59:06;;;;;;;25.83;21.37;;;;;;;11.25;77.52;95688.94;5072911;28;20470;-68
2021/04/02 10:01:33;;;;;;;29.13;23.50;;;;;;;11.38;75.09;95681.94;5069169;28;20221;-68
2021/04/02 10:04:00;;;;;;;28.23;22.50;;;;;;;11.35;75.86;95686.78;5082950;28;20224;-69
2021/04/02 10:06:28;;;;;;;28.80;22.47;;;;;;;11.47;76.94;95680.00;5074185;28;20233;-68
2021/04/02 10:08:55;;;;;;;27.30;21.67;;;;;;;11.69;76.50;95688.72;5078246;28;20701;-68
2021/04/02 10:11:23;;;;;;;27.40;22.57;;;;;;;11.85;74.46;95682.38;5069813;28;20229;-69
2021/04/02 10:13:50;;;;;;;25.23;22.40;;;;;;;11.76;74.26;95678.22;5078679;28;20239;-68
2021/04/02 10:16:18;;;;;;;27.90;23.47;;;;;;;11.77;75.22;95674.56;5079009;28;20548;-68
2021/04/02 10:18:47;;;;;;;27.30;22.07;;;;;;;12.04;73.58;95680.91;5080501;28;20214;-68
2021/04/02 10:21:15;;;;;;;30.43;23.50;;;;;;;12.12;73.52;95678.94;5079274;28;20717;-68
2021/04/02 10:23:43;;;;;;;23.83;21.47;;;;;;;12.11;73.58;95671.19;5064065;28;20226;-68
2021/04/02 10:26:11;;;;;;;25.83;20.73;;;;;;;12.17;74.31;95676.53;5076696;28;20479;-67
2021/04/02 10:28:38;;;;;;;24.33;21.80;;;;;;;12.10;74.14;95675.69;5077260;28;20278;-68
2021/04/02 10:31:07;;;;;;;30.33;24.53;;;;;;;11.80;74.09;95669.75;5070781;28;20222;-68
2021/04/02 10:33:33;;;;;;;32.67;25.50;;;;;;;11.78;75.46;95673.56;5071654;28;20220;-68
2021/04/02 10:36:01;;;;;;;25.03;20.47;;;;;;;11.78;75.81;95670.91;5080753;28;20309;-67
2021/04/02 10:38:28;;;;;;;25.50;21.77;;;;;;;11.79;75.74;95683.13;5076136;28;20319;-68
2021/04/02 10:40:56;;;;;;;28.40;22.27;;;;;;;11.78;75.18;95676.19;5080340;28;20301;-68
2021/04/02 10:43:23;;;;;;;27.50;22.97;;;;;;;11.55;74.46;95677.22;5080667;28;20232;-68
2021/04/02 10:45:51;;;;;;;28.10;22.10;;;;;;;11.50;74.80;95676.97;5079683;28;20210;-68
2021/04/02 10:48:19;;;;;;;27.63;23.70;;;;;;;11.39;74.38;95677.47;5063126;28;20231;-68
2021/04/02 10:50:48;;;;;;;28.17;23.60;;;;;;;11.36;75.58;95678.69;5062388;28;20225;-68
2021/04/02 10:53:16;;;;;;;32.77;25.83;;;;;;;11.50;75.14;95674.31;5073361;28;20260;-68
2021/04/02 10:55:43;;;;;;;28.33;24.70;;;;;;;11.52;74.78;95676.78;5072466;28;20216;-68
2021/04/02 10:58:12;;;;;;;33.40;22.30;;;;;;;11.57;75.12;95680.50;5082688;28;20249;-68
2021/04/02 11:00:40;;;;;;;23.07;20.50;;;;;;;11.67;75.25;95677.53;5070301;28;20703;-68
2021/04/02 11:03:10;;;;;;;25.57;20.30;;;;;;;11.77;74.76;95685.94;5060106;28;20251;-68
2021/04/02 11:05:37;;;;;;;22.67;19.20;;;;;;;11.87;74.31;95685.66;5081733;28;20635;-68
2021/04/02 11:08:05;;;;;;;25.50;20.63;;;;;;;11.93;73.12;95680.44;5081309;28;20248;-68
2021/04/02 11:10:33;;;;;;;23.27;20.87;;;;;;;12.01;73.84;95682.13;5067926;28;20654;-68
2021/04/02 11:13:00;;;;;;;23.57;20.93;;;;;;;12.27;72.40;95676.19;5075170;28;20302;-68
2021/04/02 11:15:28;;;;;;;24.57;21.07;;;;;;;12.46;72.53;95675.50;5074135;28;20222;-68
2021/04/02 11:17:55;;;;;;;28.03;22.00;;;;;;;12.57;71.63;95671.47;5064281;28;20222;-67
2021/04/02 11:20:25;;;;;;;26.00;20.73;;;;;;;12.70;71.16;95678.66;5064385;28;20226;-68
2021/04/02 11:22:52;;;;;;;25.90;19.80;;;;;;;12.75;70.54;95669.13;5067441;28;20221;-68
2021/04/02 11:25:19;;;;;;;24.20;21.90;;;;;;;12.84;70.09;95679.56;5079158;28;20272;-68
2021/04/02 11:27:46;;;;;;;23.77;19.60;;;;;;;12.91;69.82;95672.47;5080734;28;20234;-67
2021/04/02 11:30:17;;;;;;;21.10;18.83;;;;;;;12.99;70.37;95661.69;5083462;28;20253;-67
2021/04/02 11:32:45;;;;;;;19.90;17.87;;;;;;;13.03;70.47;95670.88;5079574;28;20221;-69
2021/04/02 11:35:13;;;;;;;21.17;18.77;;;;;;;13.08;70.13;95668.47;5073214;28;20275;-68